Dallas, TX - DFW

Everything is bigger in Texas

The Dallas/Fort Worth International Airport is no exception to that statement boasting an amazing 27 square miles of property which makes it the second largest airport in the United States. DFW serves an amazing 260 destinations by over 26 airlines. The largest operation however is the American Airlines/American Eagle brand which operate more than 75% of the passenger share out of the mega hub.

DFW Based Pilots: 35   Miles to DFW: 465011
Flights from DFW: 536   Total Hours: 2336.54
Routes using DFW: 4057   From DFW: 1123.1
Total Miles: 899093   Hours To DFW: 1213.44
Miles from DFW: 434082   DFW Charts: Click Here
VATSIM METAR: KDFW 042253Z 11005KT 10SM FEW250 28/09 A3001 RMK AO2 SLP156 T02830089
 
         
View More: Click Here
   

 

Like what you see and ready to join the team?

A rewarding and memorable virtual airline experience awaits!